Salina, KS (67401)

7:24 PM CDT on August 04, 2015 (GMT -0500)
Central Salina | | Change Station
CLOSE
Current Station
Personal Weather Station
Location: Salina, KS
Elevation: 1243 ft
Nearby Weather Stations

Elev 1243 ft 38.82 °N, 97.62 °W | Updated 12 seconds ago

Mostly Cloudy
Mostly Cloudy
82.6 °F
Feels Like 87 °F
N
2.7
Wind Variable Wind from SSW
Gusts 3.8 mph

Today
High -- | Low -- °F
--% Chance of Precip.
Yesterday
High -- | Low -- °F
Precip. -- in
6:34 AM 8:38 PM
Waning Gibbous, 73% visible
Pressure 29.87 in
Visibility 10.0 miles
Clouds Overcast 9000 ft
Heat Index 87 °F
Dew Point 71 °F
Humidity 68%
Rainfall 0.00 in
Snow Depth Not available.
UV 0 out of 12
Pollen 7.00 out of 12
Air Quality Not available.
Flu Activity Not available.
METAR KSLN 042353Z 14008KT 10SM OVC090 29/20 A2991 RMK AO2 SLP115 60003 T02940200 10311 20244 50000

More Conditions Fewer Conditions

Pressure 29.87 in
Visibility 10.0 miles
Clouds Overcast 9000 ft
Heat Index 87 °F
Dew Point 71 °F
Humidity 68%
Rainfall 0.00 in
Snow Depth Not available.
UV 0 out of 12
Pollen 7.00 out of 12
Air Quality Not available.
Flu Activity Not available.
METAR KSLN 042353Z 14008KT 10SM OVC090 29/20 A2991 RMK AO2 SLP115 60003 T02940200 10311 20244 50000

More Conditions Fewer Conditions

10-Day Weather Forecast

×

Almanac

Astronomy

Aug. 04, 2015 Rise Set
Actual Time
Civil Twilight
Nautical Twilight
Astronomical Twilight
Moon
Length of Visible Light
Length of Day
Tomorrow will be .
, % of the Moon is Illuminated

Today's Extremes

State Highs State Lows

Community

WunderPhotos

Upload Photos

1,844,033 photos uploaded!

WunderBlogs® & News

Nearby

Air Quality

  Air Quality AQ Index Pollutant
Not available.

Snow Depth

Station Depth Elevation

Earthquake Activity

City Distance Mag. Time & Date
Minimum magnitude displayed is 2.5.

Coastal Water Temperatures

Place Temperature

Stations

Nearby Weather Stations

Station Location Temp. Windchill Dew Point Humidity Wind Precip. Elev Updated Type